Time;durP1;ratioP1;P1;durP2;ratioP2;P2;SDS_P1;SDS_P2;PMS_P1;PMS_P2;Temp;Humidity;BMP_temperature;BMP_pressure;BME280_temperature;BME280_humidity;BME280_pressure;Samples;Min_cycle;Max_cycle;Signal;HPM_P1;HPM_P2
2022/09/09 00:03:10;;;;;;;12.97;9.50;;;;;;;15.42;92.66;100785.16;6179639;28;20233;-76
2022/09/09 00:06:35;;;;;;;16.87;10.57;;;;;;;15.57;92.31;100772.63;6203548;28;20232;-75
2022/09/09 00:10:10;;;;;;;11.67;9.47;;;;;;;15.51;91.95;100770.59;6169187;28;20264;-74
2022/09/09 00:13:37;;;;;;;14.37;11.20;;;;;;;15.36;93.11;100774.97;6169449;28;20871;-75
2022/09/09 00:17:03;;;;;;;16.43;10.23;;;;;;;15.37;93.32;100776.69;6180327;28;20228;-74
2022/09/09 00:20:32;;;;;;;15.43;11.33;;;;;;;15.27;93.43;100773.28;6197933;28;20680;-74
2022/09/09 00:23:55;;;;;;;14.33;10.37;;;;;;;15.48;92.93;100782.63;6183727;28;20232;-76
2022/09/09 00:27:25;;;;;;;18.27;12.17;;;;;;;15.45;92.80;100780.28;6176497;28;20885;-75
2022/09/09 00:30:48;;;;;;;15.30;10.97;;;;;;;15.29;93.43;100777.50;6170297;28;20231;-75
2022/09/09 00:34:13;;;;;;;19.37;12.27;;;;;;;15.25;93.52;100778.84;6181710;28;20327;-74
2022/09/09 00:37:35;;;;;;;19.87;11.63;;;;;;;15.19;94.18;100780.38;6178101;28;20558;-74
2022/09/09 00:41:03;;;;;;;15.40;11.93;;;;;;;15.26;93.24;100780.56;6183208;28;21773;-75
2022/09/09 00:44:34;;;;;;;19.63;10.37;;;;;;;15.29;93.18;100784.81;6190378;28;20224;-75
2022/09/09 00:47:56;;;;;;;18.53;10.07;;;;;;;15.16;93.85;100786.13;6187686;28;20224;-75
2022/09/09 00:51:30;;;;;;;11.83;8.93;;;;;;;15.07;94.56;100776.31;6189401;28;21167;-75
2022/09/09 00:55:03;;;;;;;21.17;9.57;;;;;;;15.09;94.14;100776.13;6194406;28;20232;-75
2022/09/09 00:58:26;;;;;;;12.93;7.67;;;;;;;15.20;93.80;100773.09;6195047;28;20232;-74
2022/09/09 01:01:49;;;;;;;12.17;8.00;;;;;;;15.15;93.71;100780.88;6182799;28;20237;-72
2022/09/09 01:05:19;;;;;;;11.47;8.50;;;;;;;15.03;93.75;100772.22;6163106;28;20240;-75
2022/09/09 01:08:54;;;;;;;11.07;8.50;;;;;;;14.98;93.82;100771.88;6195512;28;20645;-75
2022/09/09 01:12:17;;;;;;;11.07;9.40;;;;;;;14.97;94.50;100785.63;6198313;28;20243;-75
2022/09/09 01:15:43;;;;;;;9.27;7.03;;;;;;;14.81;94.59;100772.03;6199730;28;20311;-75
2022/09/09 01:19:12;;;;;;;13.03;8.43;;;;;;;14.87;94.65;100771.34;6199772;28;20840;-74
2022/09/09 01:22:46;;;;;;;8.67;7.77;;;;;;;14.93;94.26;100770.69;6192166;28;20614;-75
2022/09/09 01:26:16;;;;;;;10.77;8.27;;;;;;;14.89;94.24;100783.75;6199607;28;20232;-75
2022/09/09 01:29:38;;;;;;;11.67;8.13;;;;;;;14.80;94.62;100789.31;6200413;28;20233;-75
2022/09/09 01:33:00;;;;;;;10.77;7.07;;;;;;;14.74;94.93;100773.69;6198485;28;20435;-75
2022/09/09 01:36:35;;;;;;;12.97;8.50;;;;;;;14.77;94.36;100781.50;6207703;28;20601;-75
2022/09/09 01:39:57;;;;;;;11.07;7.63;;;;;;;14.82;94.58;100785.41;6198875;28;20558;-75
2022/09/09 01:43:20;;;;;;;10.60;7.63;;;;;;;14.82;94.00;100774.56;6199909;28;20232;-75
2022/09/09 01:46:41;;;;;;;13.00;8.17;;;;;;;15.02;93.46;100772.38;6204935;28;20236;-75
2022/09/09 01:50:13;;;;;;;11.43;9.00;;;;;;;14.89;93.96;100774.75;6201323;28;20730;-75
2022/09/09 01:53:34;;;;;;;13.30;8.50;;;;;;;14.84;93.69;100777.09;6197815;28;20641;-75
2022/09/09 01:57:07;;;;;;;13.13;8.17;;;;;;;14.90;93.52;100773.72;6196402;28;20686;-75
2022/09/09 02:00:31;;;;;;;11.93;8.53;;;;;;;14.92;93.12;100764.41;6195190;28;20253;-75
2022/09/09 02:03:58;;;;;;;12.20;8.27;;;;;;;14.91;93.33;100768.16;6201797;28;21859;-75
2022/09/09 02:07:38;;;;;;;9.73;8.00;;;;;;;14.90;93.37;100762.84;6200957;28;20641;-74
2022/09/09 02:11:09;;;;;;;13.63;9.47;;;;;;;14.66;93.83;100762.81;6202629;28;20221;-75
2022/09/09 02:14:40;;;;;;;10.97;8.40;;;;;;;14.85;92.85;100773.38;6206079;28;20802;-74
2022/09/09 02:18:08;;;;;;;11.73;7.33;;;;;;;14.70;93.60;100767.75;6199469;28;20771;-75
2022/09/09 02:21:31;;;;;;;12.60;9.07;;;;;;;14.58;94.44;100765.50;6193761;28;20259;-75
2022/09/09 02:24:55;;;;;;;12.27;8.60;;;;;;;14.59;94.30;100765.34;6208980;28;20248;-75
2022/09/09 02:28:23;;;;;;;12.23;8.50;;;;;;;14.57;94.38;100767.34;6200271;28;20231;-75
2022/09/09 02:31:48;;;;;;;14.50;8.20;;;;;;;14.47;94.65;100765.78;6202863;28;20432;-75
2022/09/09 02:35:18;;;;;;;11.53;9.37;;;;;;;14.40;95.10;100761.03;6190138;28;20228;-75
2022/09/09 02:38:46;;;;;;;10.30;7.43;;;;;;;14.57;94.73;100764.66;6208631;28;20303;-75
2022/09/09 02:42:09;;;;;;;12.07;7.90;;;;;;;14.52;94.82;100768.88;6198961;28;20574;-75
2022/09/09 02:45:43;;;;;;;7.77;6.67;;;;;;;14.58;94.54;100762.78;6194559;28;20249;-75
2022/09/09 02:49:10;;;;;;;12.27;7.80;;;;;;;14.66;93.85;100760.97;6196025;28;20233;-75
2022/09/09 02:52:46;;;;;;;13.20;8.40;;;;;;;14.57;93.89;100761.94;6181498;28;20256;-75
2022/09/09 02:56:15;;;;;;;10.90;6.50;;;;;;;14.56;93.65;100772.97;6180153;28;20930;-75
2022/09/09 02:59:38;;;;;;;12.57;6.70;;;;;;;14.54;93.80;100781.25;6193417;28;20232;-75
2022/09/09 03:02:59;;;;;;;10.43;7.20;;;;;;;14.49;94.02;100771.91;6183307;28;20990;-75
2022/09/09 03:06:21;;;;;;;7.30;6.57;;;;;;;14.58;93.70;100773.66;6201592;28;20233;-76
2022/09/09 03:09:49;;;;;;;7.00;6.30;;;;;;;14.45;94.12;100767.81;6184563;28;20564;-76
2022/09/09 03:13:12;;;;;;;11.63;7.40;;;;;;;14.59;93.24;100767.19;6167579;28;20962;-75
2022/09/09 03:16:34;;;;;;;10.87;7.70;;;;;;;14.62;92.82;100770.44;6198453;28;20232;-75
2022/09/09 03:19:57;;;;;;;11.30;7.63;;;;;;;14.35;94.07;100767.97;6191085;28;20229;-74
2022/09/09 03:23:18;;;;;;;10.00;6.83;;;;;;;14.15;94.78;100766.47;6202296;28;20233;-74
2022/09/09 03:26:44;;;;;;;8.20;4.97;;;;;;;14.13;95.19;100772.06;6197614;28;20670;-74
2022/09/09 03:30:08;;;;;;;6.70;5.97;;;;;;;14.22;94.99;100771.09;6195552;28;20319;-74
2022/09/09 03:33:29;;;;;;;10.80;5.47;;;;;;;14.31;94.28;100759.28;6198921;28;20229;-75
2022/09/09 03:36:51;;;;;;;6.93;5.73;;;;;;;14.25;94.19;100756.34;6194209;28;20224;-73
2022/09/09 03:40:14;;;;;;;10.63;8.00;;;;;;;14.38;93.81;100767.63;6194067;28;20427;-74
2022/09/09 03:43:38;;;;;;;7.93;6.20;;;;;;;14.16;93.98;100765.47;6197612;28;20503;-75
2022/09/09 03:47:00;;;;;;;6.57;5.27;;;;;;;14.04;94.76;100770.28;6201821;28;20791;-75
2022/09/09 03:50:21;;;;;;;9.10;5.83;;;;;;;13.94;94.83;100769.56;6182045;28;20331;-75
2022/09/09 03:53:43;;;;;;;8.63;5.17;;;;;;;13.79;96.13;100773.03;6194808;28;20761;-75
2022/09/09 03:57:05;;;;;;;8.47;6.17;;;;;;;13.85;95.92;100769.69;6200014;28;20240;-75
2022/09/09 04:00:28;;;;;;;6.30;4.83;;;;;;;13.99;95.65;100783.50;6190042;28;20466;-75
2022/09/09 04:03:50;;;;;;;6.70;6.03;;;;;;;14.06;95.35;100773.69;6187827;28;22718;-74
2022/09/09 04:07:11;;;;;;;7.63;5.27;;;;;;;13.93;95.59;100780.56;6199927;28;20236;-75
2022/09/09 04:10:36;;;;;;;8.10;4.63;;;;;;;14.03;95.10;100784.03;6205755;28;20310;-76
2022/09/09 04:13:57;;;;;;;7.03;6.33;;;;;;;14.16;93.97;100782.56;6204625;28;20255;-75
2022/09/09 04:17:19;;;;;;;5.63;4.57;;;;;;;14.22;93.72;100784.66;6202362;28;20240;-75
2022/09/09 04:20:40;;;;;;;8.87;6.20;;;;;;;14.21;94.02;100793.78;6213751;28;20228;-75
2022/09/09 04:24:02;;;;;;;5.63;4.33;;;;;;;14.05;94.43;100787.41;6207916;28;20501;-75
2022/09/09 04:27:23;;;;;;;5.83;5.03;;;;;;;14.02;94.40;100785.88;6205574;28;20442;-74
2022/09/09 04:30:45;;;;;;;8.43;6.13;;;;;;;14.12;93.88;100791.19;6197557;28;20748;-74
2022/09/09 04:34:08;;;;;;;6.87;5.20;;;;;;;14.01;94.22;100797.75;6193903;28;20634;-74
2022/09/09 04:37:30;;;;;;;6.30;4.70;;;;;;;14.09;93.78;100794.22;6210163;28;20768;-74
2022/09/09 04:40:53;;;;;;;5.33;4.63;;;;;;;14.39;93.34;100802.72;6179819;28;20360;-75
2022/09/09 04:44:15;;;;;;;6.30;5.27;;;;;;;14.23;93.13;100794.47;6187139;28;20245;-74
2022/09/09 04:47:36;;;;;;;5.97;5.37;;;;;;;14.23;92.80;100794.47;6204417;28;20236;-73
2022/09/09 04:51:01;;;;;;;7.87;5.57;;;;;;;13.96;93.86;100804.63;6203605;28;20811;-73
2022/09/09 04:54:22;;;;;;;6.20;4.43;;;;;;;13.98;93.73;100811.59;6200411;28;20232;-74
2022/09/09 04:57:44;;;;;;;6.37;4.80;;;;;;;13.94;94.15;100804.81;6203556;28;20244;-74
2022/09/09 05:01:08;;;;;;;5.80;5.13;;;;;;;13.88;94.57;100805.44;6182257;28;20692;-73
2022/09/09 05:04:29;;;;;;;5.40;3.97;;;;;;;13.91;94.55;100812.41;6208058;28;20354;-74
2022/09/09 05:07:52;;;;;;;6.00;4.80;;;;;;;13.98;94.50;100813.47;6200420;28;20229;-74
2022/09/09 05:11:18;;;;;;;5.40;4.47;;;;;;;14.08;93.78;100820.47;6205704;28;20235;-73
2022/09/09 05:14:40;;;;;;;5.13;4.27;;;;;;;14.07;93.57;100809.78;6200798;28;20319;-73
2022/09/09 05:18:02;;;;;;;6.07;4.53;;;;;;;14.08;93.58;100808.81;6185646;28;20233;-74
2022/09/09 05:21:26;;;;;;;7.70;4.67;;;;;;;14.20;93.16;100808.38;6217213;28;20244;-74
2022/09/09 05:24:51;;;;;;;6.53;4.70;;;;;;;14.29;92.44;100812.84;6202852;28;20323;-74
2022/09/09 05:28:12;;;;;;;5.37;4.87;;;;;;;14.39;91.99;100816.28;6196865;28;20818;-75
2022/09/09 05:31:33;;;;;;;5.27;4.60;;;;;;;14.39;91.58;100816.28;6185546;28;20330;-74
2022/09/09 05:34:57;;;;;;;7.00;5.00;;;;;;;14.44;91.70;100821.22;6201635;28;20731;-74
2022/09/09 05:38:19;;;;;;;5.83;4.73;;;;;;;14.56;91.20;100821.78;6202393;28;20582;-75
2022/09/09 05:41:42;;;;;;;4.87;3.93;;;;;;;14.78;90.16;100821.19;6213034;28;20252;-75
2022/09/09 05:45:04;;;;;;;4.73;3.83;;;;;;;14.86;89.66;100838.34;6205323;28;20232;-74
2022/09/09 05:48:25;;;;;;;8.27;4.23;;;;;;;14.74;89.89;100833.38;6225475;28;20487;-75
2022/09/09 05:51:47;;;;;;;5.97;4.67;;;;;;;14.56;90.94;100840.78;6226659;28;20228;-76
2022/09/09 05:55:10;;;;;;;7.07;5.43;;;;;;;14.72;90.66;100846.28;6203104;28;20237;-74
2022/09/09 05:58:33;;;;;;;5.20;3.80;;;;;;;14.63;91.33;100839.09;6184575;28;20233;-75
2022/09/09 06:01:54;;;;;;;6.00;4.00;;;;;;;14.60;91.36;100845.72;6189587;28;20633;-75
2022/09/09 06:05:22;;;;;;;5.27;4.77;;;;;;;14.41;91.71;100848.69;6197592;28;20701;-75
2022/09/09 06:08:45;;;;;;;8.63;4.27;;;;;;;14.61;92.09;100860.13;6214260;28;20594;-74
2022/09/09 06:12:08;;;;;;;4.20;3.80;;;;;;;14.73;91.71;100853.38;6208601;28;20697;-75
2022/09/09 06:15:32;;;;;;;4.50;3.33;;;;;;;14.78;91.28;100861.91;6197738;28;20847;-75
2022/09/09 06:18:54;;;;;;;4.47;3.00;;;;;;;14.80;90.98;100862.59;6198363;28;20312;-75
2022/09/09 06:22:16;;;;;;;4.30;3.90;;;;;;;14.70;91.02;100873.59;6202056;28;20240;-74
2022/09/09 06:25:40;;;;;;;4.33;2.63;;;;;;;14.55;92.09;100866.19;6201917;28;20700;-75
2022/09/09 06:29:04;;;;;;;3.87;3.47;;;;;;;14.73;91.43;100867.81;6184682;28;20229;-77
2022/09/09 06:32:27;;;;;;;4.47;3.40;;;;;;;14.65;91.99;100869.63;6196068;28;20598;-74
2022/09/09 06:35:52;;;;;;;3.40;3.07;;;;;;;14.83;91.97;100873.97;6178455;28;20245;-74
2022/09/09 06:39:15;;;;;;;4.03;3.13;;;;;;;14.79;91.21;100869.03;6204449;28;20228;-76
2022/09/09 06:42:37;;;;;;;4.23;3.27;;;;;;;14.91;91.38;100867.72;6203477;28;20641;-75
2022/09/09 06:46:23;;;;;;;2.97;2.30;;;;;;;14.93;90.79;100866.56;6190846;28;20236;-76
2022/09/09 06:49:46;;;;;;;3.77;3.10;;;;;;;15.05;91.21;100867.09;6186971;28;20232;-75
2022/09/09 06:53:07;;;;;;;3.57;3.03;;;;;;;15.03;90.27;100863.69;6193159;28;20804;-75
2022/09/09 06:56:30;;;;;;;3.27;2.97;;;;;;;15.25;89.85;100873.91;6199519;28;20330;-75
2022/09/09 06:59:52;;;;;;;3.40;2.40;;;;;;;15.37;89.59;100869.03;6190400;28;20253;-75
2022/09/09 07:03:14;;;;;;;8.17;5.10;;;;;;;15.64;88.89;100876.91;6194506;28;20654;-75
2022/09/09 07:06:39;;;;;;;3.23;2.93;;;;;;;15.74;87.67;100869.44;6184223;28;20233;-75
2022/09/09 07:10:03;;;;;;;3.40;2.40;;;;;;;15.88;87.95;100868.75;6194626;28;20233;-75
2022/09/09 07:13:25;;;;;;;3.13;2.47;;;;;;;16.09;87.05;100870.94;6202777;28;20578;-74
2022/09/09 07:16:48;;;;;;;3.27;2.90;;;;;;;15.85;86.91;100872.66;6194683;28;21103;-74
2022/09/09 07:20:12;;;;;;;3.13;2.83;;;;;;;15.70;87.69;100873.53;6184969;28;20233;-75
2022/09/09 07:23:35;;;;;;;2.10;1.90;;;;;;;15.55;88.61;100870.63;6195323;28;20520;-74
2022/09/09 07:26:56;;;;;;;5.03;1.97;;;;;;;15.60;88.98;100876.41;6176433;28;20630;-74
2022/09/09 07:30:19;;;;;;;1.60;1.50;;;;;;;16.07;87.28;100881.16;6195331;28;20506;-75
2022/09/09 07:33:41;;;;;;;2.10;1.90;;;;;;;16.23;85.69;100873.81;6192263;28;20315;-75
2022/09/09 07:37:02;;;;;;;2.10;1.90;;;;;;;16.82;83.80;100875.22;6192687;28;20224;-74
2022/09/09 07:40:25;;;;;;;4.33;2.33;;;;;;;17.10;83.10;100881.06;6210777;28;20225;-75
2022/09/09 07:43:49;;;;;;;2.07;1.87;;;;;;;17.10;82.07;100873.75;6191841;28;20228;-76
2022/09/09 07:47:10;;;;;;;4.20;2.63;;;;;;;17.31;79.76;100879.38;6200571;28;20316;-74
2022/09/09 07:50:39;;;;;;;2.97;1.97;;;;;;;17.07;80.59;100893.16;6203345;28;20614;-75
2022/09/09 07:54:02;;;;;;;4.63;2.10;;;;;;;16.66;83.36;100897.06;6195702;28;20229;-73
2022/09/09 07:57:27;;;;;;;3.53;2.50;;;;;;;16.99;82.42;100893.19;6206920;28;20229;-76
2022/09/09 08:00:49;;;;;;;4.70;2.28;;;;;;;16.75;82.74;100896.84;6207409;28;20267;-74
2022/09/09 08:04:15;;;;;;;2.60;2.40;;;;;;;17.22;80.99;100898.69;6183935;28;20241;-74
2022/09/09 08:07:37;;;;;;;2.70;2.47;;;;;;;17.13;80.71;100911.50;6204178;28;20224;-75
2022/09/09 08:11:09;;;;;;;4.32;1.98;;;;;;;17.53;80.59;100900.41;6199382;28;20237;-75
2022/09/09 08:14:32;;;;;;;2.38;1.80;;;;;;;17.68;79.15;100905.09;6201410;28;20228;-75
2022/09/09 08:17:53;;;;;;;2.03;1.55;;;;;;;17.71;78.38;100902.84;6190312;28;20232;-74
2022/09/09 08:21:17;;;;;;;4.18;2.38;;;;;;;17.71;78.61;100916.47;6197689;28;20723;-75
2022/09/09 08:24:39;;;;;;;2.65;1.75;;;;;;;18.32;77.17;100913.59;6206316;28;20627;-74
2022/09/09 08:27:59;;;;;;;1.70;1.60;;;;;;;18.33;77.31;100909.84;6199689;28;20237;-74
2022/09/09 08:31:24;;;;;;;5.60;1.85;;;;;;;18.36;76.56;100911.31;6190383;28;20632;-74
2022/09/09 08:34:45;;;;;;;3.42;1.63;;;;;;;18.67;75.83;100917.50;6200942;28;20233;-75
2022/09/09 08:38:10;;;;;;;1.58;1.48;;;;;;;18.13;76.60;100916.81;6200965;28;20582;-75
2022/09/09 08:41:55;;;;;;;2.58;2.38;;;;;;;18.08;77.65;100916.53;6192112;28;20229;-74
2022/09/09 08:45:28;;;;;;;1.92;1.42;;;;;;;17.56;80.46;100913.66;6217705;28;20684;-75
2022/09/09 08:48:59;;;;;;;1.40;1.30;;;;;;;17.82;79.01;100920.66;6211869;28;20228;-74
2022/09/09 08:52:24;;;;;;;3.75;2.20;;;;;;;17.98;78.65;100912.38;6216067;28;20311;-74
2022/09/09 08:55:48;;;;;;;1.67;1.58;;;;;;;18.11;78.36;100918.88;6208724;28;20674;-73
2022/09/09 08:59:16;;;;;;;7.20;2.20;;;;;;;18.68;76.31;100915.63;6221892;28;20225;-75
2022/09/09 09:02:45;;;;;;;1.98;1.88;;;;;;;19.07;75.18;100921.66;6208424;28;20239;-71
2022/09/09 09:06:22;;;;;;;2.15;1.70;;;;;;;19.88;72.50;100927.69;6208935;28;20746;-77
2022/09/09 09:09:49;;;;;;;4.28;1.42;;;;;;;20.39;69.75;100924.81;6210277;28;20241;-76
2022/09/09 09:13:16;;;;;;;1.73;1.63;;;;;;;20.98;68.16;100930.72;6217523;28;20559;-76
2022/09/09 09:16:44;;;;;;;1.30;1.20;;;;;;;20.98;66.76;100934.31;6208446;28;20232;-75
2022/09/09 09:20:12;;;;;;;1.25;1.20;;;;;;;20.60;67.85;100930.25;6216583;28;20236;-75
2022/09/09 09:23:42;;;;;;;1.05;0.82;;;;;;;19.22;70.32;100933.41;6225114;28;20233;-75
2022/09/09 09:27:13;;;;;;;2.42;0.88;;;;;;;18.79;70.99;100926.97;6211793;28;20236;-76
2022/09/09 09:30:41;;;;;;;2.80;1.90;;;;;;;19.21;70.91;100939.94;6199306;28;20959;-76
2022/09/09 09:34:04;;;;;;;0.93;0.85;;;;;;;19.51;69.56;100930.66;6211043;28;20710;-75
2022/09/09 09:37:30;;;;;;;2.83;1.23;;;;;;;19.40;70.13;100944.00;6222994;28;20232;-74
2022/09/09 09:40:57;;;;;;;1.58;1.00;;;;;;;18.98;71.46;100942.75;6208375;28;20224;-74
2022/09/09 09:44:27;;;;;;;2.05;1.00;;;;;;;19.57;70.56;100935.34;6228534;28;20315;-73
2022/09/09 09:47:59;;;;;;;1.80;1.30;;;;;;;19.89;69.21;100939.50;6211643;28;20228;-75
2022/09/09 09:51:23;;;;;;;3.03;1.58;;;;;;;19.95;69.66;100930.50;6212784;28;20228;-74
2022/09/09 09:54:45;;;;;;;2.90;1.77;;;;;;;20.05;68.72;100925.53;6227569;28;20567;-75
2022/09/09 09:58:16;;;;;;;5.68;2.10;;;;;;;20.05;69.10;100936.50;6220355;28;20236;-74
2022/09/09 10:01:37;;;;;;;1.40;1.15;;;;;;;20.44;67.55;100938.78;6227301;28;20599;-74
2022/09/09 10:05:06;;;;;;;1.38;0.77;;;;;;;20.27;66.68;100940.97;6230104;28;20793;-74
2022/09/09 10:08:29;;;;;;;1.80;0.70;;;;;;;21.28;65.34;100927.53;6222110;28;20233;-74
2022/09/09 10:11:59;;;;;;;2.85;1.65;;;;;;;21.20;65.51;100935.06;6215176;28;20236;-75
2022/09/09 10:15:34;;;;;;;2.28;2.05;;;;;;;21.26;65.79;100929.63;6218103;28;20660;-75
2022/09/09 10:19:00;;;;;;;2.75;1.70;;;;;;;21.95;63.38;100930.28;6215182;28;21771;-74
2022/09/09 10:22:27;;;;;;;1.63;1.52;;;;;;;21.77;62.46;100924.53;6214405;28;20233;-74
2022/09/09 10:26:11;;;;;;;1.63;1.15;;;;;;;21.25;64.15;100919.72;6213096;28;20646;-74
2022/09/09 10:29:43;;;;;;;1.48;1.20;;;;;;;;;;6216680;28;20236;-74
2022/09/09 10:33:10;;;;;;;0.60;0.60;;;;;;;22.61;60.15;100920.19;6212012;28;20259;-75
2022/09/09 10:36:31;;;;;;;2.97;1.33;;;;;;;20.83;64.09;100919.88;6229958;28;20228;-74
2022/09/09 10:40:00;;;;;;;0.73;0.73;;;;;;;21.78;63.20;100925.38;6227591;28;20240;-74
2022/09/09 10:43:40;;;;;;;0.65;0.65;;;;;;;22.20;60.57;100917.66;6221066;28;20633;-75
2022/09/09 10:47:32;;;;;;;0.85;0.68;;;;;;;21.72;60.23;100910.56;6227594;28;20266;-75
2022/09/09 10:51:06;;;;;;;1.50;1.13;;;;;;;21.86;60.76;100911.50;6224335;28;20236;-75
2022/09/09 10:54:40;;;;;;;1.38;1.27;;;;;;;21.81;61.06;100909.34;6235496;28;20421;-74
2022/09/09 10:58:04;;;;;;;1.42;1.33;;;;;;;22.06;60.35;100909.63;6217956;28;20229;-75
2022/09/09 11:01:29;;;;;;;0.68;0.65;;;;;;;22.80;58.21;100911.06;6222685;28;20563;-75
2022/09/09 11:04:56;;;;;;;1.95;0.80;;;;;;;21.33;61.32;100904.97;6223095;28;20236;-74
2022/09/09 11:08:20;;;;;;;1.10;1.00;;;;;;;22.15;59.42;100917.41;6227208;28;20228;-75
2022/09/09 11:11:48;;;;;;;1.30;1.10;;;;;;;24.32;52.21;100907.34;6223986;28;20582;-75
2022/09/09 11:15:18;;;;;;;1.50;1.40;;;;;;;29.07;42.59;100890.88;6225412;28;20229;-74
2022/09/09 11:18:42;;;;;;;1.27;0.70;;;;;;;29.89;40.18;100897.19;6224693;28;20251;-75
2022/09/09 11:22:08;;;;;;;1.85;0.85;;;;;;;30.63;39.19;100890.63;6217660;28;20300;-75
2022/09/09 11:25:36;;;;;;;2.00;0.80;;;;;;;29.57;39.29;100891.53;6223382;28;20582;-75
2022/09/09 11:29:19;;;;;;;1.10;1.05;;;;;;;24.48;51.49;100904.03;6225918;28;20231;-74
2022/09/09 11:33:09;;;;;;;2.05;1.63;;;;;;;24.40;51.90;100909.84;6225627;28;20598;-75
2022/09/09 11:36:55;;;;;;;1.02;0.50;;;;;;;23.64;54.88;100911.84;6226339;28;20225;-75
2022/09/09 11:40:22;;;;;;;1.83;1.73;;;;;;;23.05;56.29;100906.56;6228263;28;20617;-76
2022/09/09 11:43:47;;;;;;;1.05;0.80;;;;;;;22.26;59.85;100913.19;6222905;28;20228;-75
2022/09/09 11:47:21;;;;;;;0.70;0.70;;;;;;;22.55;59.25;100917.44;6220121;28;20224;-75
2022/09/09 11:50:42;;;;;;;0.68;0.60;;;;;;;21.63;61.46;100922.81;6222389;28;20228;-75
2022/09/09 11:54:29;;;;;;;1.50;0.90;;;;;;;21.74;61.83;100919.44;6222922;28;20228;-75
2022/09/09 11:57:59;;;;;;;1.67;0.82;;;;;;;22.31;60.85;100923.56;6227239;28;20237;-74
2022/09/09 12:01:31;;;;;;;2.38;1.02;;;;;;;23.59;57.19;100916.31;6219262;28;20239;-76
2022/09/09 12:04:58;;;;;;;1.58;1.20;;;;;;;25.43;51.48;100908.13;6233167;28;20232;-74
2022/09/09 12:08:28;;;;;;;2.42;0.90;;;;;;;23.34;56.67;100909.88;6221495;28;20228;-76
2022/09/09 12:11:50;;;;;;;1.73;0.55;;;;;;;22.47;57.54;100912.13;6221959;28;20228;-76
2022/09/09 12:15:28;;;;;;;0.60;0.60;;;;;;;21.52;60.55;100912.44;6220254;28;20608;-76
2022/09/09 12:18:51;;;;;;;0.80;0.50;;;;;;;20.82;63.48;100909.13;6218718;28;20232;-76
2022/09/09 12:22:20;;;;;;;0.90;0.73;;;;;;;20.84;63.43;100915.25;6225575;28;20668;-76
2022/09/09 12:25:58;;;;;;;0.60;0.55;;;;;;;21.17;62.96;100917.13;6220943;28;20244;-76
2022/09/09 12:29:28;;;;;;;1.83;1.45;;;;;;;23.58;57.44;100909.97;6219936;28;20790;-76
2022/09/09 12:33:01;;;;;;;0.70;0.70;;;;;;;22.66;59.20;100920.41;6223442;28;20643;-76
2022/09/09 12:36:30;;;;;;;1.80;0.80;;;;;;;22.55;60.55;100917.44;6221870;28;20252;-76
2022/09/09 12:39:56;;;;;;;6.78;1.25;;;;;;;22.82;59.88;100914.44;6229359;28;20229;-75
2022/09/09 12:43:20;;;;;;;2.60;1.35;;;;;;;24.68;53.43;100912.09;6229350;28;20622;-75
2022/09/09 12:46:42;;;;;;;1.05;0.70;;;;;;;23.67;55.55;100900.41;6228326;28;20304;-77
2022/09/09 12:50:04;;;;;;;1.75;0.90;;;;;;;24.75;52.43;100904.66;6223140;28;20272;-74
2022/09/09 12:53:30;;;;;;;0.73;0.70;;;;;;;22.21;59.20;100899.28;6220640;28;20229;-75
2022/09/09 12:56:51;;;;;;;2.15;0.40;;;;;;;21.15;61.85;100900.03;6224907;28;20244;-70
2022/09/09 13:00:17;;;;;;;0.90;0.90;;;;;;;20.73;64.98;100902.97;6223707;28;20919;-69
2022/09/09 13:03:47;;;;;;;3.95;1.73;;;;;;;20.65;65.49;100916.81;6223637;28;20237;-70
2022/09/09 13:07:09;;;;;;;2.10;1.90;;;;;;;20.20;67.96;100922.75;6221990;28;20236;-70
2022/09/09 13:10:38;;;;;;;2.42;1.20;;;;;;;19.94;70.06;100926.91;6228214;28;20232;-70
2022/09/09 13:14:00;;;;;;;2.15;1.70;;;;;;;19.87;70.63;100920.53;6219307;28;20553;-69
2022/09/09 13:17:23;;;;;;;0.93;0.93;;;;;;;19.99;70.54;100917.25;6229221;28;20236;-70
2022/09/09 13:20:47;;;;;;;2.95;1.02;;;;;;;19.83;71.13;100927.44;6229190;28;20768;-69
2022/09/09 13:24:28;;;;;;;1.45;0.85;;;;;;;19.65;71.33;100926.19;6223355;28;20996;-68
2022/09/09 13:28:00;;;;;;;4.75;0.82;;;;;;;19.33;73.32;100929.34;6220927;28;20628;-69
2022/09/09 13:31:24;;;;;;;1.25;1.25;;;;;;;19.17;74.77;100943.25;6224133;28;20240;-69
2022/09/09 13:34:53;;;;;;;2.45;1.27;;;;;;;19.15;75.51;100946.13;6227649;28;20233;-70
2022/09/09 13:38:15;;;;;;;3.05;1.65;;;;;;;19.02;77.57;100957.75;6222350;28;20658;-70
2022/09/09 13:41:44;;;;;;;2.25;2.08;;;;;;;18.63;80.52;100962.63;6226435;28;20704;-69
2022/09/09 13:45:16;;;;;;;2.03;1.83;;;;;;;18.14;81.83;100975.00;6223704;28;20594;-69
2022/09/09 13:48:37;;;;;;;2.47;2.15;;;;;;;18.12;80.74;100977.06;6223422;28;20255;-70
2022/09/09 13:52:07;;;;;;;1.27;1.17;;;;;;;18.38;79.46;100974.78;6216597;28;20233;-69
2022/09/09 13:55:30;;;;;;;1.52;1.40;;;;;;;18.45;80.26;100974.91;6221805;28;20228;-70
2022/09/09 13:58:51;;;;;;;2.25;1.33;;;;;;;18.52;80.01;100973.16;6219311;28;20327;-70
2022/09/09 14:02:13;;;;;;;2.05;1.35;;;;;;;18.33;81.69;100966.31;6215192;28;20232;-70
2022/09/09 14:05:35;;;;;;;4.53;1.83;;;;;;;18.42;81.40;100961.63;6220270;28;20260;-69
2022/09/09 14:08:56;;;;;;;2.80;1.98;;;;;;;18.31;82.53;100943.81;6223907;28;20244;-69
2022/09/09 14:12:18;;;;;;;3.33;1.60;;;;;;;18.33;82.08;100941.72;6224590;28;20626;-70
2022/09/09 14:15:38;;;;;;;2.65;1.58;;;;;;;18.33;82.21;100942.59;6224158;28;20224;-69
2022/09/09 14:19:01;;;;;;;1.98;1.30;;;;;;;18.38;81.55;100942.88;6222488;28;22303;-68
2022/09/09 14:22:22;;;;;;;6.07;2.30;;;;;;;18.30;82.12;100942.09;6229955;28;20571;-69
2022/09/09 14:25:44;;;;;;;2.22;2.00;;;;;;;18.07;83.54;100942.13;6224557;28;20220;-69
2022/09/09 14:29:05;;;;;;;1.83;1.30;;;;;;;18.01;82.53;100936.53;6222663;28;20224;-70
2022/09/09 14:32:26;;;;;;;1.40;1.30;;;;;;;18.08;81.64;100941.09;6215826;28;20232;-73
2022/09/09 14:35:56;;;;;;;1.52;1.42;;;;;;;18.24;81.29;100937.38;6220044;28;20496;-72
2022/09/09 14:39:17;;;;;;;1.67;1.38;;;;;;;18.01;81.24;100933.81;6221549;28;20751;-72
2022/09/09 14:42:38;;;;;;;22.63;17.10;;;;;;;18.21;80.86;100932.28;6223343;28;20236;-73
2022/09/09 14:45:59;;;;;;;9.95;6.90;;;;;;;18.38;79.74;100935.72;6218296;28;20224;-73
2022/09/09 14:49:20;;;;;;;2.80;2.45;;;;;;;18.21;79.16;100935.84;6185812;28;20232;-75
2022/09/09 14:52:42;;;;;;;5.57;3.88;;;;;;;18.02;79.30;100935.53;6225161;28;20233;-74
2022/09/09 14:56:08;;;;;;;3.42;2.55;;;;;;;17.98;81.21;100935.03;6227669;28;20236;-73
2022/09/09 14:59:29;;;;;;;2.13;1.92;;;;;;;18.07;80.01;100939.38;6223391;28;20638;-73
2022/09/09 15:02:53;;;;;;;4.28;3.33;;;;;;;18.05;80.84;100941.44;6226417;28;20228;-73
2022/09/09 15:06:15;;;;;;;5.53;5.00;;;;;;;18.25;80.19;100941.81;6214920;28;20220;-73
2022/09/09 15:09:37;;;;;;;1.85;1.75;;;;;;;18.15;80.52;100942.03;6209032;28;20244;-71
2022/09/09 15:12:58;;;;;;;11.15;9.30;;;;;;;18.20;80.95;100942.34;6228031;28;20236;-70
2022/09/09 15:16:20;;;;;;;4.63;2.67;;;;;;;18.08;81.94;100942.97;6209512;28;20607;-73
2022/09/09 15:19:41;;;;;;;2.53;2.33;;;;;;;18.08;82.52;100942.97;6208054;28;20249;-71
2022/09/09 15:23:02;;;;;;;6.35;2.92;;;;;;;18.09;82.75;100939.19;6217545;28;20628;-72
2022/09/09 15:26:25;;;;;;;6.90;4.22;;;;;;;18.28;81.65;100934.09;6218711;28;20224;-75
2022/09/09 15:29:47;;;;;;;2.95;2.67;;;;;;;18.43;79.77;100942.31;6222687;28;20233;-71
2022/09/09 15:33:09;;;;;;;2.28;1.33;;;;;;;18.30;78.39;100939.34;6221322;28;20240;-71
2022/09/09 15:36:32;;;;;;;3.88;1.73;;;;;;;18.17;79.11;100934.53;6217174;28;20251;-71
2022/09/09 15:39:53;;;;;;;1.60;1.48;;;;;;;18.31;77.53;100919.22;6230462;28;20609;-70
2022/09/09 15:43:16;;;;;;;3.85;2.45;;;;;;;18.58;76.98;100924.13;6232476;28;20236;-70
2022/09/09 15:46:38;;;;;;;1.75;1.65;;;;;;;18.70;75.93;100930.81;6226767;28;20263;-70
2022/09/09 15:49:59;;;;;;;2.45;1.10;;;;;;;18.00;78.06;100934.84;6221634;28;20228;-70
2022/09/09 15:53:21;;;;;;;1.15;1.05;;;;;;;17.83;78.46;100936.88;6215107;28;20240;-70
2022/09/09 15:56:42;;;;;;;0.60;0.60;;;;;;;17.71;78.88;100932.84;6212294;28;20248;-72